Aviation Digital Data Service (ADDS)

Output produced by METARs form (1956 UTC 04 August 2015)
found at http://www.aviationweather.gov/adds/metars/
 
KROW 041951Z VRB05KT 10SM CLR 36/14 A3001 RMK AO2 SLP089 T03610139
KROW 041851Z VRB04KT 10SM CLR 34/15 A3003 RMK AO2 SLP096 T03440150
KROW 041751Z 00000KT 10SM CLR 32/16 A3004 RMK AO2 SLP106 T03170161 10322 20178 58008
KROW 041651Z 04005KT 10SM CLR 30/17 A3005 RMK AO2 SLP111 T03000167
KROW 041551Z 01005KT 10SM CLR 27/17 A3006 RMK AO2 SLP116 T02670167
KROW 041451Z 36006KT 10SM CLR 24/17 A3007 RMK AO2 SLP122 T02440167 50009
KROW 041351Z 02003KT 10SM CLR 22/18 A3007 RMK AO2 SLP121 T02170178
KROW 041251Z 00000KT 10SM CLR 19/17 A3006 RMK AO2 SLP118 T01890167
KROW 041151Z 00000KT 10SM CLR 18/16 A3004 RMK AO2 SLP113 70003 T01780161 10206 20178 53010
KROW 041051Z AUTO 00000KT 10SM CLR 19/17 A3002 RMK AO2 SLP110 T01890167
KROW 040951Z AUTO 22003KT 10SM CLR 18/17 A3001 RMK AO2 SLP109 T01830172
KROW 040851Z AUTO 16005KT 10SM CLR 19/17 A3001 RMK AO2 SLP092 T01940172 58006
KROW 040751Z AUTO 16009KT 10SM CLR 20/18 A3002 RMK AO2 SLP096 T02000178
KROW 040651Z AUTO 16012KT 10SM CLR 21/17 A3002 RMK AO2 SLP096 T02060172 403560200
KROW 040551Z AUTO 14006KT 10SM CLR 21/18 A3003 RMK AO2 SLP099 T02060183 10289 20206 53010
KROW 040451Z AUTO 17008KT 10SM CLR 21/19 A3002 RMK AO2 SLP098 T02110189
KROW 040351Z AUTO 16005KT 10SM CLR 22/18 A3000 RMK AO2 SLP093 T02170183
KROW 040251Z 19005KT 10SM CLR 22/18 A2999 RMK AO2 SLP094 T02220178 51017
KROW 040151Z 17007KT 10SM CLR 26/17 A2997 RMK AO2 SLP083 T02610172
KROW 040051Z 22009KT 10SM CLR 28/17 A2996 RMK AO2 SLP077 T02780167
KROW 032351Z 18012KT 10SM CLR 27/17 A2994 RMK AO2 RAE23 SLP071 P0001 60003 T02720172 10356 20217 58017
KROW 032251Z 18005KT 9SM -RA FEW100 BKN120 23/17 A2995 RMK AO2 SLP082 P0002 T02280172
KROW 032214Z 22014KT 10SM -RA BKN120 22/17 A2998 RMK AO2 LTG DSNT E AND SE P0000 T02220167
KROW 032151Z 21015G23KT 10SM VCTS -RA FEW075 SCT120 23/16 A2998 RMK AO2 PK WND 23036/2108 LTG DSNT E-SW RAB09 TSB2053E41 PRESFR SLP092 P0000 T02280156
KROW 032147Z 21016G27KT 10SM VCTS -RA FEW075 FEW120 23/16 A2999 RMK AO2 PK WND 23036/2108 LTG DSNT E-SW RAB09 TSB2053E41 P0000
KROW 032059Z 10SM TS BKN120 33/14 A3000 RMK AO2 LTG DSNT SW AND W TSB53 PRESRR T03280139
KROW 032051Z 06007KT 10SM VCTS SCT120 33/14 A2998 RMK AO2 LTG DSNT SW AND W TSB28E46 SLP077 T03330139 56014
KROW 032028Z 03009KT 10SM TS CLR 34/14 A2998 RMK AO2 LTG DSNT SW AND W TSB28 T03440144
KROW 041722Z 0418/0518 04005KT P6SM SKC 
     FM042000 32006KT P6SM FEW070 
     FM050300 18006KT P6SM FEW120